createdAt,value
2022-12-17T00:01:48.932Z,297.03
2022-12-17T00:07:20.665Z,293.84
2022-12-17T00:12:52.123Z,297.30
2022-12-17T00:18:24.238Z,293.05
2022-12-17T00:23:57.165Z,301.12
2022-12-17T00:29:29.033Z,294.90
2022-12-17T00:35:00.966Z,294.37
2022-12-17T00:40:32.830Z,291.23
2022-12-17T00:46:04.575Z,292.01
2022-12-17T00:51:36.256Z,289.43
2022-12-17T00:57:08.167Z,292.01
2022-12-17T01:02:40.029Z,290.71
2022-12-17T01:08:11.999Z,290.97
2022-12-17T01:13:43.541Z,289.94
2022-12-17T01:19:15.349Z,289.69
2022-12-17T01:24:47.249Z,288.67
2022-12-17T01:35:48.697Z,288.42
2022-12-17T01:41:20.521Z,286.65
2022-12-17T01:46:52.476Z,285.90
2022-12-17T01:52:24.390Z,289.18
2022-12-17T01:57:56.118Z,289.43
2022-12-17T02:03:27.666Z,287.66
2022-12-17T02:08:59.185Z,292.53
2022-12-17T02:14:31.371Z,291.49
2022-12-17T02:20:03.079Z,292.01
2022-12-17T02:25:34.979Z,294.63
2022-12-17T02:31:06.789Z,297.84
2022-12-17T02:36:38.434Z,296.49
2022-12-17T02:42:09.923Z,294.90
2022-12-17T02:47:41.497Z,296.23
2022-12-17T02:53:13.527Z,294.90
2022-12-17T02:58:45.126Z,293.58
2022-12-17T03:04:16.726Z,293.05
2022-12-17T03:09:48.611Z,295.69
2022-12-17T03:15:20.778Z,296.76
2022-12-17T03:20:52.897Z,295.69
2022-12-17T03:26:24.499Z,296.23
2022-12-17T03:31:56.411Z,297.30
2022-12-17T03:37:28.188Z,298.65
2022-12-17T03:42:59.888Z,295.69
2022-12-17T03:48:31.902Z,301.12
2022-12-17T03:54:03.781Z,302.51
2022-12-17T03:59:35.571Z,307.04
2022-12-17T04:05:07.245Z,310.23
2022-12-17T04:10:38.918Z,313.49
2022-12-17T04:16:10.810Z,315.00
2022-12-17T04:21:42.789Z,313.79
2022-12-17T04:27:14.499Z,315.91
2022-12-17T04:32:46.412Z,320.54
2022-12-17T04:38:20.046Z,320.22
2022-12-17T04:43:51.776Z,321.48
2022-12-17T04:49:23.588Z,326.60
2022-12-17T04:54:55.187Z,326.60
2022-12-17T05:00:27.037Z,323.38
2022-12-17T05:05:58.619Z,327.90
2022-12-17T05:11:30.500Z,319.60
2022-12-17T05:17:02.634Z,326.60
2022-12-17T05:22:34.535Z,328.89
2022-12-17T05:28:06.200Z,323.70
2022-12-17T05:33:38.486Z,327.25
2022-12-17T05:39:09.771Z,324.66
2022-12-17T05:44:41.705Z,330.21
2022-12-17T05:50:13.340Z,329.22
2022-12-17T05:55:45.162Z,326.92
2022-12-17T06:01:16.969Z,330.88
2022-12-17T06:06:48.850Z,336.30
2022-12-17T06:12:20.665Z,340.14
2022-12-17T06:17:52.527Z,343.70
2022-12-17T06:23:24.584Z,347.34
2022-12-17T06:28:56.372Z,348.82
2022-12-17T06:34:28.351Z,352.57
2022-12-17T06:39:59.843Z,354.09
2022-12-17T06:45:31.916Z,357.56
2022-12-17T06:51:03.679Z,352.19
2022-12-17T06:56:35.657Z,356.01
2022-12-17T07:02:07.969Z,353.71
2022-12-17T07:07:39.521Z,355.62
2022-12-17T07:13:11.311Z,354.09
2022-12-17T07:18:43.110Z,351.81
2022-12-17T07:24:14.896Z,348.45
2022-12-17T07:29:46.621Z,347.71
2022-12-17T07:35:18.265Z,347.71
2022-12-17T07:40:50.336Z,349.93
2022-12-17T07:46:22.162Z,349.19
2022-12-17T07:51:53.946Z,352.57
2022-12-17T07:57:25.691Z,350.31
2022-12-17T08:02:57.808Z,347.71
2022-12-17T08:13:59.159Z,348.82
2022-12-17T08:19:31.426Z,353.33
2022-12-17T08:25:03.274Z,353.33
2022-12-17T08:30:35.156Z,350.31
2022-12-17T08:36:07.024Z,346.61
2022-12-17T08:41:38.599Z,345.88
2022-12-17T08:47:10.650Z,346.61
2022-12-17T08:52:42.241Z,347.34
2022-12-17T08:58:18.086Z,352.19
2022-12-17T09:00:51.407Z,358.34
2022-12-17T09:06:27.644Z,369.64
2022-12-17T09:12:04.446Z,371.74
2022-12-17T09:17:36.297Z,372.58
2022-12-17T09:23:08.064Z,367.16
2022-12-17T09:28:42.298Z,370.90
